BC5 weather

Public forecast

Using degrees Celsius for public forecast. Weather courtesy of forecast.io.

Closest aviation weather report (METAR) to Sisters Islets Lighthouse Helipad

Closest report is Powell River Airport, 21.0 nm (38.9 km) N. Retrieved 2020/08/09 14:00 UTC (28 minutes ago):

CYPW 091400Z VRB02KT 30SM SKC 09/09 A3028 RMK SLP256

Closest aviation forecast (TAF) to Sisters Islets Lighthouse Helipad

Closest forecast is Comox Airport, 22.1 nm (41.0 km) NW. Retrieved 2020/08/09 12:42 UTC (2 hours ago):

TAF CYQQ 091139Z 0912/1012 30005KT P6SM FEW250 FM091400 32008KT P6SM FEW020 FM092100 02005KT P6SM SCT070 TEMPO 0922/1001 BKN070 FM100100 33005KT P6SM SCT060 FM100900 30008KT P6SM SCT040 RMK NXT FCST BY 091800Z